createdAt,value
2023-03-08T00:01:42.788Z,1.30
2023-03-08T00:04:30.668Z,1.10
2023-03-08T00:07:18.551Z,1.53
2023-03-08T00:10:08.964Z,1.40
2023-03-08T00:12:56.788Z,1.53
2023-03-08T00:15:44.763Z,1.47
2023-03-08T00:18:33.052Z,1.30
2023-03-08T00:21:20.892Z,1.40
2023-03-08T00:24:08.953Z,1.43
2023-03-08T00:26:58.105Z,1.30
2023-03-08T00:29:45.891Z,1.37
2023-03-08T00:32:34.264Z,1.40
2023-03-08T00:35:22.165Z,1.50
2023-03-08T00:38:09.999Z,1.80
2023-03-08T00:40:57.820Z,1.70
2023-03-08T00:43:47.105Z,1.63
2023-03-08T00:46:35.183Z,1.60
2023-03-08T00:49:23.592Z,1.60
2023-03-08T00:52:12.025Z,1.50
2023-03-08T00:54:59.832Z,1.67
2023-03-08T00:57:48.057Z,1.97
2023-03-08T01:00:37.326Z,1.60
2023-03-08T01:03:26.319Z,1.83
2023-03-08T01:06:15.976Z,2.10
2023-03-08T01:09:04.263Z,2.00
2023-03-08T01:11:52.118Z,1.87
2023-03-08T01:14:39.909Z,1.97
2023-03-08T01:17:29.055Z,2.10
2023-03-08T01:20:16.988Z,1.80
2023-03-08T01:23:04.862Z,2.07
2023-03-08T01:25:59.606Z,2.03
2023-03-08T01:28:47.687Z,2.40
2023-03-08T01:31:35.525Z,2.40
2023-03-08T01:34:25.238Z,2.53
2023-03-08T01:37:14.695Z,2.30
2023-03-08T01:40:02.899Z,2.53
2023-03-08T01:42:50.728Z,2.10
2023-03-08T01:46:04.647Z,2.10
2023-03-08T01:48:56.626Z,2.67
2023-03-08T01:51:48.542Z,2.60
2023-03-08T01:54:39.492Z,1.73
2023-03-08T01:57:32.403Z,2.40
2023-03-08T02:00:22.840Z,2.70
2023-03-08T02:03:12.494Z,2.57
2023-03-08T02:06:00.552Z,2.50
2023-03-08T02:08:49.690Z,2.50
2023-03-08T02:11:40.101Z,2.50
2023-03-08T02:14:29.320Z,2.87
2023-03-08T02:17:19.849Z,2.53
2023-03-08T02:20:15.720Z,2.50
2023-03-08T02:23:13.249Z,2.50
2023-03-08T02:26:04.897Z,2.70
2023-03-08T02:28:52.791Z,2.40
2023-03-08T02:31:41.302Z,2.50
2023-03-08T02:34:29.163Z,2.40
2023-03-08T02:37:17.104Z,2.67
2023-03-08T02:40:08.058Z,2.30
2023-03-08T02:42:56.472Z,2.50
2023-03-08T02:45:44.292Z,2.70
2023-03-08T02:48:32.072Z,2.47
2023-03-08T02:51:20.512Z,2.30
2023-03-08T02:54:08.451Z,2.63
2023-03-08T02:56:57.593Z,2.60
2023-03-08T02:59:45.455Z,2.60
2023-03-08T03:02:33.897Z,2.40
2023-03-08T03:05:21.788Z,2.87
2023-03-08T03:08:09.736Z,2.70
2023-03-08T03:10:57.764Z,3.00
2023-03-08T03:13:48.965Z,3.00
2023-03-08T03:16:37.732Z,2.80
2023-03-08T03:19:25.558Z,3.03
2023-03-08T03:22:13.505Z,3.20
2023-03-08T03:25:01.367Z,3.00
2023-03-08T03:27:49.226Z,3.20
2023-03-08T03:30:40.405Z,2.90
2023-03-08T03:33:28.481Z,3.47
2023-03-08T03:36:19.539Z,3.10
2023-03-08T03:39:07.549Z,3.00
2023-03-08T03:41:55.343Z,3.27
2023-03-08T03:44:43.226Z,3.50
2023-03-08T03:47:32.696Z,3.33
2023-03-08T03:50:20.554Z,3.50
2023-03-08T03:53:08.476Z,3.33
2023-03-08T03:55:56.686Z,3.50
2023-03-08T03:58:45.110Z,3.50
2023-03-08T04:01:33.660Z,3.07
2023-03-08T04:04:23.276Z,2.93
2023-03-08T04:07:12.969Z,3.03
2023-03-08T04:10:01.297Z,3.60
2023-03-08T04:12:49.744Z,3.93
2023-03-08T04:15:37.551Z,3.27
2023-03-08T04:18:25.377Z,3.30
2023-03-08T04:21:15.797Z,3.20
2023-03-08T04:24:03.850Z,3.20
2023-03-08T04:26:51.747Z,3.40
2023-03-08T04:29:39.713Z,3.40
2023-03-08T04:32:27.604Z,3.10
2023-03-08T04:35:15.693Z,2.87
2023-03-08T04:38:04.882Z,3.23
2023-03-08T04:41:10.258Z,3.17
2023-03-08T04:43:58.615Z,3.40
2023-03-08T04:46:49.130Z,3.20
2023-03-08T04:49:37.050Z,3.50
2023-03-08T04:52:25.669Z,3.53
2023-03-08T04:55:14.841Z,3.40
2023-03-08T04:58:02.676Z,3.77
2023-03-08T05:00:50.596Z,4.33
2023-03-08T05:03:38.487Z,5.03
2023-03-08T05:06:27.858Z,4.87
2023-03-08T05:09:15.700Z,5.00
2023-03-08T05:12:05.235Z,4.93
2023-03-08T05:14:53.325Z,4.67
2023-03-08T05:17:41.154Z,5.57
2023-03-08T05:20:29.112Z,4.83
2023-03-08T05:23:16.960Z,5.43
2023-03-08T05:26:06.380Z,4.90
2023-03-08T05:28:55.630Z,4.53
2023-03-08T05:31:45.393Z,4.73
2023-03-08T05:34:33.306Z,4.37
2023-03-08T05:37:21.825Z,4.57
2023-03-08T05:40:11.061Z,4.53
2023-03-08T05:42:58.849Z,4.43
2023-03-08T05:45:57.746Z,4.07
2023-03-08T05:48:46.428Z,3.93
2023-03-08T05:51:34.342Z,3.57
2023-03-08T05:54:22.259Z,3.37
2023-03-08T05:57:10.242Z,2.90
2023-03-08T05:59:58.155Z,2.73
2023-03-08T06:02:47.433Z,2.90
2023-03-08T06:05:35.652Z,2.83
2023-03-08T06:08:23.494Z,2.17
2023-03-08T06:11:11.832Z,1.80
2023-03-08T06:13:59.919Z,2.17
2023-03-08T06:16:48.911Z,2.03
2023-03-08T06:19:38.133Z,1.70
2023-03-08T06:22:25.977Z,1.53
2023-03-08T06:25:13.786Z,1.40
2023-03-08T06:28:01.823Z,1.47
2023-03-08T06:30:50.406Z,1.63
2023-03-08T06:33:38.431Z,1.73
2023-03-08T06:36:27.867Z,3.00
2023-03-08T06:39:18.785Z,4.93
2023-03-08T06:42:07.404Z,4.47
2023-03-08T06:44:55.461Z,2.43
2023-03-08T06:47:43.436Z,1.27
2023-03-08T06:50:31.301Z,1.43
2023-03-08T06:53:20.563Z,0.97
2023-03-08T06:56:10.285Z,0.80
2023-03-08T06:58:58.219Z,1.17
2023-03-08T07:01:46.100Z,1.30
2023-03-08T07:04:34.000Z,1.20
2023-03-08T07:07:21.884Z,1.30
2023-03-08T07:10:14.707Z,1.40
2023-03-08T07:13:02.510Z,1.10
2023-03-08T07:15:50.488Z,1.30
2023-03-08T07:18:38.937Z,3.40
2023-03-08T07:21:26.770Z,4.60
2023-03-08T07:24:14.643Z,3.90
2023-03-08T07:27:03.923Z,3.10
2023-03-08T07:29:52.789Z,2.47
2023-03-08T07:32:43.276Z,1.50
2023-03-08T07:35:31.609Z,1.73
2023-03-08T07:38:20.187Z,1.70
2023-03-08T07:41:08.031Z,1.43
2023-03-08T07:43:57.218Z,1.50
2023-03-08T07:46:47.007Z,2.80
2023-03-08T07:49:35.728Z,1.90
2023-03-08T07:52:28.342Z,1.43
2023-03-08T07:55:16.447Z,1.87
2023-03-08T07:58:04.323Z,1.87
2023-03-08T08:00:53.580Z,2.73
2023-03-08T08:03:41.520Z,2.63
2023-03-08T08:06:29.580Z,2.60
2023-03-08T08:09:17.930Z,2.30
2023-03-08T08:12:06.317Z,2.30
2023-03-08T08:14:54.236Z,2.23
2023-03-08T08:17:43.371Z,2.23
2023-03-08T08:20:31.376Z,1.80
2023-03-08T08:23:19.210Z,2.30
2023-03-08T08:26:08.533Z,2.20
2023-03-08T08:28:56.486Z,2.50
2023-03-08T08:31:44.353Z,2.57
2023-03-08T08:34:33.598Z,2.60
2023-03-08T08:37:21.533Z,2.50
2023-03-08T08:40:12.098Z,3.70
2023-03-08T08:42:59.908Z,3.47
2023-03-08T08:45:49.893Z,3.00
2023-03-08T08:48:38.591Z,2.57
2023-03-08T08:51:28.459Z,2.70
2023-03-08T08:54:16.869Z,3.20
2023-03-08T08:57:04.865Z,2.90
2023-03-08T08:59:52.718Z,2.50
2023-03-08T09:02:40.583Z,2.70
2023-03-08T09:05:29.034Z,2.60
2023-03-08T09:08:18.177Z,2.50
2023-03-08T09:11:08.176Z,2.63
2023-03-08T09:13:56.290Z,2.47
2023-03-08T09:16:44.481Z,1.73
2023-03-08T09:19:32.634Z,1.23
2023-03-08T09:22:20.539Z,1.00
2023-03-08T09:25:11.397Z,1.10
2023-03-08T09:27:59.240Z,2.57
2023-03-08T09:30:47.189Z,2.73
2023-03-08T09:33:34.998Z,1.37
2023-03-08T09:36:22.896Z,1.07
2023-03-08T09:39:13.026Z,0.80
2023-03-08T09:42:04.707Z,1.10
2023-03-08T09:45:10.417Z,1.07
2023-03-08T09:48:06.715Z,0.90
2023-03-08T09:50:57.110Z,1.10
2023-03-08T09:53:50.563Z,0.90
2023-03-08T09:56:43.401Z,1.50
2023-03-08T09:59:40.932Z,1.17
2023-03-08T10:02:40.433Z,1.30
2023-03-08T10:05:36.321Z,1.27
2023-03-08T10:08:27.402Z,1.73
2023-03-08T10:11:21.182Z,1.40
2023-03-08T10:14:19.642Z,1.70
2023-03-08T10:17:14.558Z,1.30
2023-03-08T10:20:09.176Z,1.43
2023-03-08T10:23:00.238Z,1.53
2023-03-08T10:25:49.778Z,1.60
2023-03-08T10:28:37.664Z,1.47
2023-03-08T10:31:27.776Z,1.10
2023-03-08T10:34:19.977Z,1.40
2023-03-08T10:37:08.746Z,1.67
2023-03-08T10:39:59.723Z,1.80
2023-03-08T10:42:53.292Z,1.20
2023-03-08T10:45:41.280Z,1.57
2023-03-08T10:48:29.271Z,1.40
2023-03-08T10:51:20.787Z,1.63
2023-03-08T10:54:16.423Z,1.87
2023-03-08T10:57:04.550Z,3.03
2023-03-08T10:59:52.457Z,2.93
2023-03-08T11:02:40.527Z,1.63
2023-03-08T11:05:28.357Z,1.50
2023-03-08T11:08:22.361Z,1.50
2023-03-08T11:11:12.893Z,1.90
2023-03-08T11:14:00.843Z,2.37
2023-03-08T11:17:15.272Z,1.80
2023-03-08T11:20:13.528Z,5.43
2023-03-08T11:23:13.820Z,2.20
2023-03-08T11:26:12.063Z,1.90
2023-03-08T11:29:12.873Z,1.90
2023-03-08T11:32:12.919Z,2.00
2023-03-08T11:35:10.232Z,1.80
2023-03-08T11:38:07.359Z,2.30
2023-03-08T11:41:06.630Z,2.47
2023-03-08T11:44:10.311Z,2.50
2023-03-08T11:47:20.339Z,2.30
2023-03-08T11:50:17.597Z,2.40
2023-03-08T11:53:14.607Z,2.37
2023-03-08T11:56:27.646Z,2.80
2023-03-08T11:59:27.621Z,3.10
2023-03-08T12:02:21.098Z,3.13
2023-03-08T12:05:13.638Z,2.70
2023-03-08T12:08:06.502Z,2.97
2023-03-08T12:10:57.960Z,3.50
2023-03-08T12:13:48.343Z,3.33
2023-03-08T12:16:45.893Z,3.07
2023-03-08T12:19:42.664Z,3.63
2023-03-08T12:22:44.540Z,3.23
2023-03-08T12:25:35.784Z,3.10
2023-03-08T12:28:27.797Z,3.60
2023-03-08T12:31:27.950Z,3.20
2023-03-08T12:34:28.243Z,3.67
2023-03-08T12:37:22.417Z,3.47
2023-03-08T12:40:30.434Z,3.43
2023-03-08T12:43:31.105Z,3.20
2023-03-08T12:46:19.034Z,3.13
2023-03-08T12:49:22.754Z,2.90
2023-03-08T12:52:27.316Z,3.10
2023-03-08T12:55:21.609Z,3.03
2023-03-08T12:58:18.520Z,3.57
2023-03-08T13:01:08.123Z,3.43
2023-03-08T13:03:56.413Z,3.60
2023-03-08T13:07:04.538Z,3.10
2023-03-08T13:09:59.366Z,3.40
2023-03-08T13:13:36.723Z,3.50
2023-03-08T13:16:33.612Z,3.60
2023-03-08T13:19:27.810Z,3.77
2023-03-08T13:22:22.052Z,3.13
2023-03-08T13:25:20.059Z,3.50
2023-03-08T13:28:11.000Z,3.77
2023-03-08T13:31:01.997Z,3.43
2023-03-08T13:33:51.862Z,3.50
2023-03-08T13:36:39.970Z,3.80
2023-03-08T13:39:31.054Z,3.80
2023-03-08T13:42:24.559Z,3.80
2023-03-08T13:45:18.633Z,3.63
2023-03-08T13:48:09.961Z,4.10
2023-03-08T13:50:59.291Z,3.77
2023-03-08T13:53:47.670Z,4.57
2023-03-08T13:56:38.013Z,3.90
2023-03-08T13:59:25.968Z,4.57
2023-03-08T14:02:22.509Z,4.77
2023-03-08T14:05:17.736Z,4.67
2023-03-08T14:08:07.834Z,4.33
2023-03-08T14:10:59.230Z,6.33
2023-03-08T14:13:51.525Z,5.93
2023-03-08T14:16:43.148Z,6.03
2023-03-08T14:19:33.268Z,5.43
2023-03-08T14:22:37.772Z,5.80
2023-03-08T14:25:30.972Z,5.90
2023-03-08T14:28:35.613Z,6.53
2023-03-08T14:31:27.025Z,6.03
2023-03-08T14:34:21.102Z,7.27
2023-03-08T14:37:18.314Z,6.20
2023-03-08T14:40:22.012Z,6.07
2023-03-08T14:43:18.056Z,4.47
2023-03-08T14:46:09.188Z,5.20
2023-03-08T14:49:01.297Z,11.33
2023-03-08T14:51:49.229Z,10.90
2023-03-08T14:54:38.523Z,9.23
2023-03-08T14:57:28.328Z,5.73
2023-03-08T15:00:17.861Z,11.83
2023-03-08T15:03:06.600Z,7.93
2023-03-08T15:05:56.948Z,13.17
2023-03-08T15:08:44.905Z,9.87
2023-03-08T15:11:33.141Z,8.50
2023-03-08T15:14:21.005Z,7.77
2023-03-08T15:17:08.826Z,8.17
2023-03-08T15:19:56.740Z,7.63
2023-03-08T15:22:49.466Z,5.43
2023-03-08T15:25:39.074Z,6.70
2023-03-08T15:28:27.289Z,6.53
2023-03-08T15:31:15.198Z,6.83
2023-03-08T15:34:03.699Z,5.47
2023-03-08T15:36:52.789Z,5.70
2023-03-08T15:39:42.015Z,4.60
2023-03-08T15:42:29.827Z,5.60
2023-03-08T15:45:17.824Z,5.80
2023-03-08T15:48:07.861Z,5.70
2023-03-08T15:50:58.467Z,5.83
2023-03-08T15:53:46.358Z,5.87
2023-03-08T15:56:35.744Z,5.50
2023-03-08T15:59:23.568Z,6.63
2023-03-08T16:02:15.316Z,6.60
2023-03-08T16:05:03.316Z,6.50
2023-03-08T16:07:54.326Z,6.73
2023-03-08T16:10:42.181Z,6.80
2023-03-08T16:13:31.385Z,8.13
2023-03-08T16:16:19.881Z,8.23
2023-03-08T16:19:07.664Z,9.03
2023-03-08T16:21:55.711Z,10.07
2023-03-08T16:24:43.679Z,8.43
2023-03-08T16:27:33.286Z,6.57
2023-03-08T16:30:23.115Z,6.63
2023-03-08T16:33:10.958Z,7.77
2023-03-08T16:35:58.787Z,8.27
2023-03-08T16:38:46.646Z,9.50
2023-03-08T16:41:34.956Z,6.97
2023-03-08T16:44:24.690Z,13.83
2023-03-08T16:47:13.884Z,16.15
2023-03-08T16:50:02.080Z,12.07
2023-03-08T16:52:54.437Z,10.40
2023-03-08T16:55:42.265Z,8.53
2023-03-08T16:58:30.149Z,14.97
2023-03-08T17:01:19.771Z,13.07
2023-03-08T17:04:09.157Z,11.63
2023-03-08T17:06:57.366Z,8.60
2023-03-08T17:09:46.288Z,8.17
2023-03-08T17:12:34.375Z,7.90
2023-03-08T17:15:22.214Z,10.27
2023-03-08T17:18:10.765Z,9.40
2023-03-08T17:20:59.892Z,9.10
2023-03-08T17:23:48.215Z,8.77
2023-03-08T17:26:37.644Z,9.83
2023-03-08T17:29:25.885Z,8.83
2023-03-08T17:32:16.799Z,10.60
2023-03-08T17:35:05.373Z,9.00
2023-03-08T17:37:54.601Z,7.57
2023-03-08T17:40:42.674Z,9.47
2023-03-08T17:43:30.613Z,9.67
2023-03-08T17:46:20.550Z,8.47
2023-03-08T17:49:08.401Z,8.53
2023-03-08T17:51:56.283Z,8.30
2023-03-08T17:54:45.630Z,6.57
2023-03-08T17:57:33.414Z,6.30
2023-03-08T18:00:21.527Z,6.10
2023-03-08T18:03:09.661Z,6.30
2023-03-08T18:05:57.455Z,7.23
2023-03-08T18:08:45.356Z,6.33
2023-03-08T18:11:37.399Z,6.43
2023-03-08T18:14:37.788Z,6.63
2023-03-08T18:17:27.243Z,7.23
2023-03-08T18:20:15.175Z,6.87
2023-03-08T18:23:03.971Z,6.10
2023-03-08T18:25:51.962Z,5.90
2023-03-08T18:28:41.356Z,6.63
2023-03-08T18:31:31.004Z,5.83
2023-03-08T18:34:18.913Z,6.00
2023-03-08T18:37:06.753Z,6.13
2023-03-08T18:39:55.118Z,6.90
2023-03-08T18:42:43.840Z,7.43
2023-03-08T18:45:33.073Z,7.40
2023-03-08T18:48:22.384Z,7.60
2023-03-08T18:51:10.826Z,7.87
2023-03-08T18:53:59.804Z,7.87
2023-03-08T18:56:49.535Z,9.03
2023-03-08T18:59:37.313Z,8.30
2023-03-08T19:02:28.630Z,8.80
2023-03-08T19:05:17.435Z,9.17
2023-03-08T19:08:05.275Z,8.83
2023-03-08T19:10:53.098Z,9.67
2023-03-08T19:13:41.409Z,9.73
2023-03-08T19:16:32.589Z,8.60
2023-03-08T19:19:22.495Z,8.20
2023-03-08T19:22:11.828Z,8.50
2023-03-08T19:24:59.667Z,7.53
2023-03-08T19:27:47.858Z,7.33
2023-03-08T19:30:36.579Z,7.20
2023-03-08T19:33:30.930Z,7.83
2023-03-08T19:36:20.745Z,7.93
2023-03-08T19:39:10.635Z,10.77
2023-03-08T19:42:00.462Z,13.27
2023-03-08T19:44:50.422Z,13.33
2023-03-08T19:47:38.254Z,11.07
2023-03-08T19:50:26.104Z,11.03
2023-03-08T19:53:15.283Z,8.60
2023-03-08T19:56:03.070Z,8.07
2023-03-08T19:58:51.353Z,7.13
2023-03-08T20:01:39.940Z,7.00
2023-03-08T20:04:29.280Z,7.60
2023-03-08T20:07:17.146Z,9.23
2023-03-08T20:10:15.720Z,7.13
2023-03-08T20:13:04.285Z,7.43
2023-03-08T20:15:52.082Z,10.57
2023-03-08T20:18:40.005Z,9.33
2023-03-08T20:21:30.883Z,8.00
2023-03-08T20:24:19.259Z,8.27
2023-03-08T20:27:08.396Z,9.10
2023-03-08T20:29:57.107Z,12.27
2023-03-08T20:32:45.052Z,9.10
2023-03-08T20:35:33.446Z,8.20
2023-03-08T20:38:21.263Z,8.33
2023-03-08T20:41:13.264Z,11.73
2023-03-08T20:44:02.451Z,13.13
2023-03-08T20:46:50.599Z,9.87
2023-03-08T20:49:39.409Z,9.40
2023-03-08T20:52:27.346Z,9.10
2023-03-08T20:55:15.281Z,7.60
2023-03-08T20:58:03.383Z,7.33
2023-03-08T21:00:53.401Z,9.10
2023-03-08T21:03:41.639Z,9.87
2023-03-08T21:06:31.187Z,9.13
2023-03-08T21:09:19.224Z,7.57
2023-03-08T21:12:07.853Z,8.20
2023-03-08T21:14:55.758Z,9.40
2023-03-08T21:17:45.006Z,9.73
2023-03-08T21:20:37.029Z,8.63
2023-03-08T21:23:25.086Z,8.63
2023-03-08T21:26:14.184Z,9.50
2023-03-08T21:29:04.725Z,12.73
2023-03-08T21:31:55.118Z,13.40
2023-03-08T21:34:44.360Z,10.03
2023-03-08T21:37:32.225Z,10.57
2023-03-08T21:40:20.241Z,10.53
2023-03-08T21:43:08.470Z,11.40
2023-03-08T21:45:56.324Z,8.90
2023-03-08T21:48:44.605Z,7.90
2023-03-08T21:51:36.729Z,8.13
2023-03-08T21:54:26.377Z,9.27
2023-03-08T21:57:14.228Z,9.10
2023-03-08T22:00:02.058Z,8.73
2023-03-08T22:02:54.209Z,8.10
2023-03-08T22:05:42.527Z,7.70
2023-03-08T22:08:31.870Z,8.70
2023-03-08T22:11:20.570Z,8.07
2023-03-08T22:14:08.713Z,8.27
2023-03-08T22:16:56.646Z,7.17
2023-03-08T22:19:44.590Z,6.47
2023-03-08T22:22:32.601Z,6.10
2023-03-08T22:25:21.893Z,7.53
2023-03-08T22:28:09.864Z,8.70
2023-03-08T22:30:57.686Z,11.97
2023-03-08T22:33:45.977Z,9.87
2023-03-08T22:36:35.640Z,6.93
2023-03-08T22:39:23.732Z,5.87
2023-03-08T22:42:13.495Z,7.90
2023-03-08T22:45:02.345Z,5.03
2023-03-08T22:47:52.086Z,4.73
2023-03-08T22:50:40.445Z,4.83
2023-03-08T22:53:29.343Z,4.30
2023-03-08T22:56:20.938Z,5.60
2023-03-08T22:59:10.438Z,4.87
2023-03-08T23:01:58.367Z,5.23
2023-03-08T23:04:46.333Z,4.50
2023-03-08T23:07:34.324Z,4.30
2023-03-08T23:10:22.348Z,3.77
2023-03-08T23:13:14.367Z,3.60
2023-03-08T23:16:07.476Z,3.67
2023-03-08T23:18:56.137Z,3.30
2023-03-08T23:21:44.600Z,3.57
2023-03-08T23:24:32.521Z,3.83
2023-03-08T23:27:20.457Z,3.60
2023-03-08T23:30:10.339Z,3.20
2023-03-08T23:32:59.465Z,3.80
2023-03-08T23:35:49.514Z,3.17
2023-03-08T23:38:38.076Z,3.20
2023-03-08T23:41:26.687Z,3.60
2023-03-08T23:44:14.696Z,3.37
2023-03-08T23:47:02.539Z,3.37
2023-03-08T23:49:52.285Z,3.10
2023-03-08T23:52:40.069Z,3.20
2023-03-08T23:55:27.901Z,3.37
2023-03-08T23:58:15.734Z,3.43
